Terminal Aerodrome Forecast
Issued by NWS

Home | Current Version | Previous Version | Graphics & Text | Print | Product List | Glossary On
Versions: 1 2 3 4 5 6 7 8 9 10 11 12 13 14 15 16 17 18 19 20 21 22 23 24 25 26 27 28 29 30 31 32 33 34 35 36 37 38
000
FTUS43 KGRB 020520
TAFRHI
TAF
KRHI 020520Z 0206/0306 00000KT 1SM BR SCT015 BKN200
      TEMPO 0206/0210 1/4SM FG SCT004
     FM021000 00000KT 1SM BR SCT015 BKN120
     FM021400 19004KT P6SM SCT020 BKN100
      TEMPO 0216/0220 5SM -SHRA BR BKN020
     FM022000 16003KT 5SM -SHRA BR BKN020 PROB30 0222/0302 4SM -TSRA
      BR BKN015CB
     FM030200 VRB03KT 3SM BR VCSH BKN015=

USA.gov is the U.S. government's official web portal to all federal, state and local government web resources and services.